Weather reports worldwide

Advertisment
Malaga,Puerto, Spain (8479): temperature & dewpoint: 08.10.2019 13:00:00 - 14.10.2019 13:00:00 (CEST)Malaga,Puerto, Spain (8479): wind speed & gusts: 08.10.2019 13:00:00 - 14.10.2019 13:00:00 (CEST)Malaga,Puerto, Spain (8479): wind direction: 08.10.2019 13:00:00 - 14.10.2019 13:00:00 (CEST)Malaga,Puerto, Spain (8479): reduced air pressure: 08.10.2019 13:00:00 - 14.10.2019 13:00:00 (CEST)Malaga,Puerto, Spain (8479): precipitation: 08.10.2019 13:00:00 - 14.10.2019 13:00:00 (CEST)
Date & Time tt [°C] td [°C] ff [km/h] ff [kn] fx [km/h] fx [kn] dd ppp [hPa] rr [mm]
14.10.2019 13:00:00 23,0 14,8 24 13 34 18 SSW 1015,1 0,0
14.10.2019 12:00:00 25,0 14,8 8 5 16 9 S 1014,8 0,0
14.10.2019 11:00:00 25,3 16,2 3 2 9 5 W 1014,4 0,0
14.10.2019 10:00:00 23,2 17,4 2 1 9 5 NW 1014,4 0,0
14.10.2019 09:00:00 21,3 17,9 6 3 17 9 E 1014,0 0,0
14.10.2019 08:00:00 21,5 18,1 5 3 14 8 E 1013,9 -
14.10.2019 07:00:00 21,2 18,2 9 5 16 9 NE 1014,1 0,1
14.10.2019 06:00:00 21,2 18,2 5 3 10 5 SW 1013,8 0,1
14.10.2019 05:00:00 21,6 18,0 5 3 14 7 WSW 1013,3 0,0
14.10.2019 04:00:00 21,5 17,9 5 3 9 5 N 1012,9 0,0
14.10.2019 03:00:00 21,8 18,6 1 0 13 7 NE 1013,9 0,0
14.10.2019 02:00:00 21,8 19,0 2 1 5 3 SSW 1014,1 -
14.10.2019 01:00:00 21,7 19,3 2 1 7 4 W 1014,6 0,0
14.10.2019 00:00:00 21,7 19,3 4 2 11 6 S 1014,9 0,0
13.10.2019 23:00:00 21,6 19,2 3 2 9 5 E 1014,2 0,0
13.10.2019 22:00:00 21,6 19,2 3 2 9 5 SSW 1014,2 0,0
13.10.2019 21:00:00 21,8 19,4 4 2 10 5 SSE 1013,7 0,0
13.10.2019 20:00:00 22,1 18,7 9 5 14 8 E 1013,1 -
13.10.2019 19:00:00 23,2 17,9 4 2 11 6 S 1013,6 0,0
13.10.2019 18:00:00 23,4 17,4 8 4 11 6 SSE 1013,8 0,0
13.10.2019 17:00:00 24,4 17,6 4 2 11 6 SSE 1014,0 0,0
13.10.2019 16:00:00 23,5 17,5 8 4 14 8 SSE 1014,2 0,0
13.10.2019 15:00:00 23,5 17,5 10 6 16 8 SSE 1014,8 0,0
13.10.2019 14:00:00 23,4 16,9 7 4 15 8 SE 1015,7 -
13.10.2019 13:00:00 23,9 17,6 6 3 11 6 SSE 1016,3 0,0
13.10.2019 12:00:00 24,2 15,7 5 3 13 7 SE 1016,3 0,0
13.10.2019 11:00:00 24,6 15,8 3 2 8 5 SSE 1015,9 0,0
13.10.2019 10:00:00 21,9 15,7 4 2 11 6 NW 1015,4 0,0
13.10.2019 09:00:00 19,8 15,5 5 3 14 8 N 1015,6 0,0
13.10.2019 08:00:00 19,5 15,2 5 3 13 7 N 1015,5 -
13.10.2019 07:00:00 19,6 15,3 8 5 14 8 NNW 1015,2 0,0
13.10.2019 06:00:00 19,9 15,5 5 3 14 7 NNW 1015,0 0,0
13.10.2019 05:00:00 19,9 15,3 5 3 12 7 NNW 1015,0 0,0
13.10.2019 04:00:00 20,5 16,1 4 2 13 7 NW 1015,3 0,0
13.10.2019 03:00:00 20,5 16,1 6 3 13 7 NNW 1015,9 0,0
13.10.2019 02:00:00 20,8 16,6 7 4 12 7 NNE 1016,0 -
13.10.2019 01:00:00 20,8 17,4 3 2 6 4 NNE 1016,2 0,0
13.10.2019 00:00:00 21,5 18,1 1 1 4 2 SSE 1016,3 0,0
12.10.2019 23:00:00 21,9 17,9 3 2 5 3 SSW 1016,1 0,0
12.10.2019 22:00:00 22,1 17,9 1 1 3 2 E 1015,5 0,0
12.10.2019 21:00:00 22,1 17,7 1 0 8 4 S 1015,5 0,0
12.10.2019 20:00:00 22,5 17,4 1 1 6 4 ESE 1015,1 -
12.10.2019 19:00:00 23,2 17,0 5 3 10 6 SSE 1014,8 0,0
12.10.2019 18:00:00 24,3 17,1 5 3 13 7 SE 1014,8 0,0
12.10.2019 17:00:00 24,5 16,2 6 4 14 7 SSE 1014,9 0,0
12.10.2019 16:00:00 23,8 15,3 7 4 10 5 SE 1015,1 0,0
12.10.2019 15:00:00 24,6 17,3 8 4 13 7 SSE 1015,6 0,0
12.10.2019 14:00:00 24,9 17,1 6 3 16 9 SE 1016,2 -
12.10.2019 13:00:00 24,2 17,2 6 4 10 5 SSE 1016,8 0,0
12.10.2019 12:00:00 24,4 18,1 5 3 9 5 E 1017,1 0,0
12.10.2019 11:00:00 22,8 16,8 3 2 9 5 S 1017,1 0,0
12.10.2019 10:00:00 22,9 16,9 1 1 14 7 ENE 1016,6 0,0
12.10.2019 09:00:00 21,7 16,2 6 3 14 8 N 1015,7 0,0
12.10.2019 08:00:00 21,0 16,4 6 3 16 8 NW 1015,7 -
12.10.2019 07:00:00 21,2 15,5 5 3 14 7 N 1015,7 0,0
12.10.2019 06:00:00 21,0 16,4 6 3 11 6 NW 1015,8 0,0
12.10.2019 05:00:00 21,6 15,9 3 2 11 6 N 1015,7 0,0
12.10.2019 04:00:00 21,7 15,8 5 3 13 7 N 1016,4 0,0
12.10.2019 03:00:00 21,7 15,8 8 4 13 7 NNW 1017,3 0,0
12.10.2019 02:00:00 21,9 15,7 5 3 10 5 NW 1017,6 -
12.10.2019 01:00:00 22,0 16,1 5 3 12 7 N 1017,8 0,0
12.10.2019 00:00:00 22,1 16,6 4 2 9 5 NNE 1018,0 0,0
11.10.2019 23:00:00 22,1 16,8 4 2 7 4 NE 1018,0 0,0
11.10.2019 22:00:00 22,4 16,7 3 2 8 5 SSE 1017,8 0,0
11.10.2019 21:00:00 22,4 16,4 5 3 10 5 E 1017,1 0,0
11.10.2019 20:00:00 22,6 15,9 4 2 8 4 ESE 1016,6 -
11.10.2019 19:00:00 23,4 15,7 4 2 10 6 E 1016,8 0,0
11.10.2019 18:00:00 23,9 15,7 6 3 10 6 E 1017,1 0,0
11.10.2019 17:00:00 24,7 15,3 6 4 12 7 E 1017,4 0,0
11.10.2019 16:00:00 25,0 14,5 5 3 10 6 E 1018,0 0,0
11.10.2019 15:00:00 24,8 14,0 6 4 14 7 SSE 1018,4 0,0
11.10.2019 14:00:00 25,5 14,6 8 4 17 9 SSE 1019,1 -
11.10.2019 13:00:00 25,2 14,6 6 3 12 6 SE 1019,7 0,0
11.10.2019 12:00:00 25,6 15,3 2 1 8 4 ESE 1019,8 0,0
11.10.2019 11:00:00 24,3 16,0 3 1 8 4 SSE 1020,3 0,0
11.10.2019 10:00:00 22,4 17,1 4 2 10 6 NNE 1019,6 0,0
11.10.2019 09:00:00 22,0 17,6 1 0 5 3 ENE 1019,2 0,0
11.10.2019 08:00:00 21,6 17,8 2 1 9 5 S 1019,0 -
11.10.2019 07:00:00 21,9 17,7 4 2 10 6 SSE 1018,7 0,0
11.10.2019 06:00:00 21,6 18,0 5 3 10 5 SE 1018,4 0,0
11.10.2019 05:00:00 21,6 18,8 5 3 10 6 SSW 1018,6 0,0
11.10.2019 04:00:00 21,8 19,0 7 4 14 8 SE 1018,8 0,0
11.10.2019 03:00:00 21,7 18,9 10 5 14 8 SE 1019,1 0,0
11.10.2019 02:00:00 22,0 19,2 9 5 14 8 SE 1019,3 -
11.10.2019 01:00:00 21,8 18,8 9 5 15 8 ESE 1019,4 0,0
11.10.2019 00:00:00 22,2 18,8 9 5 19 10 ESE 1019,5 0,0
10.10.2019 23:00:00 22,0 18,6 6 3 14 8 ESE 1019,1 0,0
10.10.2019 22:00:00 22,1 18,5 8 4 16 9 ESE 1018,8 0,0
10.10.2019 21:00:00 22,1 18,1 9 5 22 12 SE 1018,2 0,0
10.10.2019 20:00:00 22,3 17,9 13 7 23 13 SE 1017,7 -
10.10.2019 19:00:00 22,4 17,3 13 7 26 14 ESE 1017,5 0,0
10.10.2019 18:00:00 23,1 17,3 11 6 18 10 ESE 1017,6 0,0
10.10.2019 17:00:00 23,3 16,1 9 5 14 8 ESE 1017,6 0,0
10.10.2019 16:00:00 24,1 16,1 6 4 11 6 ESE 1018,0 0,0
10.10.2019 15:00:00 25,0 15,9 8 4 16 9 SSE 1018,3 0,0
10.10.2019 14:00:00 - - - - - - - - -
10.10.2019 13:00:00 25,7 16,0 4 2 19 10 E 1019,5 0,0
10.10.2019 12:00:00 24,9 15,8 6 4 22 12 E 1019,7 0,0
10.10.2019 11:00:00 23,6 14,9 4 2 11 6 SSE 1019,6 0,0
10.10.2019 10:00:00 21,4 13,1 4 2 10 5 NW 1019,3 0,0
10.10.2019 09:00:00 19,8 11,8 6 3 13 7 NNW 1018,6 0,0
10.10.2019 08:00:00 19,5 11,5 8 4 16 8 NNW 1018,1 -
10.10.2019 07:00:00 19,5 11,5 10 5 15 8 NNW 1017,9 0,0
10.10.2019 06:00:00 19,6 11,6 7 4 13 7 NNW 1017,3 0,0
10.10.2019 05:00:00 19,8 11,8 6 4 11 6 NNW 1017,1 0,0
10.10.2019 04:00:00 19,8 11,8 5 3 10 6 NNW 1016,9 0,0
10.10.2019 03:00:00 20,2 13,2 4 2 9 5 NNW 1016,9 0,0
10.10.2019 02:00:00 20,4 14,1 4 2 9 5 NNW 1016,6 -
10.10.2019 01:00:00 19,8 15,0 3 1 8 4 NW 1016,6 0,0
10.10.2019 00:00:00 20,9 18,7 0 0 4 2 N 1016,3 0,0
09.10.2019 23:00:00 21,2 18,6 1 0 5 3 SSE 1016,2 0,0
09.10.2019 22:00:00 21,2 18,4 2 1 9 5 E 1015,7 0,0
09.10.2019 21:00:00 21,3 18,1 5 3 7 4 SE 1015,3 0,0
09.10.2019 20:00:00 21,8 17,6 5 3 8 5 SSE 1014,8 -
09.10.2019 19:00:00 22,9 16,7 5 3 11 6 ESE 1014,7 0,0
09.10.2019 18:00:00 24,1 16,4 6 3 11 6 S 1014,7 0,0
09.10.2019 17:00:00 24,4 15,3 7 4 11 6 SSE 1014,7 0,0
09.10.2019 16:00:00 22,7 15,0 9 5 12 7 SE 1014,9 0,0
09.10.2019 15:00:00 22,9 14,5 8 5 12 7 SE 1015,2 0,0
09.10.2019 14:00:00 23,7 15,5 9 5 13 7 SSE 1015,8 -
09.10.2019 13:00:00 24,0 14,1 6 3 10 5 SSE 1016,5 0,0
09.10.2019 12:00:00 25,1 13,0 5 3 8 5 SSE 1016,8 0,0
09.10.2019 11:00:00 25,7 12,5 3 2 9 5 SSE 1016,5 0,0
09.10.2019 10:00:00 21,9 13,8 6 3 15 8 NW 1016,1 0,0
09.10.2019 09:00:00 20,0 13,7 9 5 16 9 NNW 1016,1 0,0
09.10.2019 08:00:00 19,5 13,4 7 4 16 9 NNW 1016,3 -
09.10.2019 07:00:00 19,7 13,6 7 4 12 6 NNW 1016,0 0,0
09.10.2019 06:00:00 19,7 13,9 8 4 16 8 N 1015,7 0,0
09.10.2019 05:00:00 19,8 14,2 9 5 13 7 NNW 1015,9 0,0
09.10.2019 04:00:00 20,1 14,0 9 5 14 8 NNW 1016,0 0,0
09.10.2019 03:00:00 20,6 14,5 6 4 16 9 N 1016,5 0,0
09.10.2019 02:00:00 20,7 14,6 7 4 14 8 NNW 1016,9 -
09.10.2019 01:00:00 21,2 14,6 3 2 12 7 N 1017,2 0,0
09.10.2019 00:00:00 21,8 14,9 5 3 9 5 NNW 1017,5 0,0
08.10.2019 23:00:00 22,1 15,0 4 2 9 5 N 1017,4 0,0
08.10.2019 22:00:00 22,2 15,1 4 2 13 7 ESE 1016,9 0,0
08.10.2019 21:00:00 22,2 16,0 6 3 17 9 ESE 1016,6 0,0
08.10.2019 20:00:00 22,4 16,0 11 6 18 10 SE 1016,4 -
08.10.2019 19:00:00 23,2 17,4 5 3 15 8 SE 1016,3 0,0
08.10.2019 18:00:00 22,9 17,1 9 5 15 8 ESE 1016,7 0,0
08.10.2019 17:00:00 23,1 17,1 9 5 13 7 E 1016,9 0,0
08.10.2019 16:00:00 23,3 17,3 8 4 12 7 SE 1017,7 0,0
08.10.2019 15:00:00 24,4 17,9 8 4 16 9 SSE 1017,7 0,0
08.10.2019 14:00:00 24,4 18,1 8 5 19 10 SSE 1018,4 -
08.10.2019 13:00:00 24,2 15,7 12 7 23 13 SSE 1018,9 0,0

tt = temperature
td = dewpoint
ff = wind speed
fx = gusts
dd = wind direction
ppp = reduced air pressure
rr = precipitation

Next stations